sensor_id;sensor_type;location;lat;lon;timestamp;pressure;altitude;pressure_sealevel;temperature;humidity
20889;BME280;10604;51.976;7.594;2023-09-19T00:01:32;99883.53;;;42.47;22.38
20889;BME280;10604;51.976;7.594;2023-09-19T00:03:57;99883.00;;;41.15;23.11
20889;BME280;10604;51.976;7.594;2023-09-19T00:06:23;99888.88;;;41.81;22.40
20889;BME280;10604;51.976;7.594;2023-09-19T00:08:51;99894.44;;;40.28;24.06
20889;BME280;10604;51.976;7.594;2023-09-19T00:11:16;99894.31;;;41.09;23.20
20889;BME280;10604;51.976;7.594;2023-09-19T00:13:41;99902.69;;;40.87;23.29
20889;BME280;10604;51.976;7.594;2023-09-19T00:16:08;99908.50;;;42.52;21.98
20889;BME280;10604;51.976;7.594;2023-09-19T00:18:35;99901.84;;;42.53;21.33
20889;BME280;10604;51.976;7.594;2023-09-19T00:21:01;99905.09;;;42.09;22.02
20889;BME280;10604;51.976;7.594;2023-09-19T00:23:26;99909.59;;;41.16;22.61
20889;BME280;10604;51.976;7.594;2023-09-19T00:25:53;99910.81;;;40.35;23.18
20889;BME280;10604;51.976;7.594;2023-09-19T00:28:22;99914.97;;;41.85;22.06
20889;BME280;10604;51.976;7.594;2023-09-19T00:30:47;99919.69;;;41.37;22.50
20889;BME280;10604;51.976;7.594;2023-09-19T00:33:16;99922.84;;;40.02;23.87
20889;BME280;10604;51.976;7.594;2023-09-19T00:35:48;99925.06;;;39.23;23.97
20889;BME280;10604;51.976;7.594;2023-09-19T00:38:13;99927.00;;;42.06;22.01
20889;BME280;10604;51.976;7.594;2023-09-19T00:40:43;99926.69;;;41.92;22.03
20889;BME280;10604;51.976;7.594;2023-09-19T00:43:08;99937.25;;;42.10;21.68
20889;BME280;10604;51.976;7.594;2023-09-19T00:45:33;99928.50;;;41.29;21.97
20889;BME280;10604;51.976;7.594;2023-09-19T00:48:01;99941.84;;;42.62;21.37
20889;BME280;10604;51.976;7.594;2023-09-19T00:50:28;99945.41;;;41.75;21.74
20889;BME280;10604;51.976;7.594;2023-09-19T00:52:54;99938.81;;;41.02;22.35
20889;BME280;10604;51.976;7.594;2023-09-19T00:55:22;99942.28;;;42.18;21.55
20889;BME280;10604;51.976;7.594;2023-09-19T00:57:48;99953.38;;;42.29;21.54
20889;BME280;10604;51.976;7.594;2023-09-19T01:00:17;99955.13;;;42.50;21.28
20889;BME280;10604;51.976;7.594;2023-09-19T01:02:44;99953.13;;;40.94;22.54
20889;BME280;10604;51.976;7.594;2023-09-19T01:05:10;99943.31;;;41.92;21.89
20889;BME280;10604;51.976;7.594;2023-09-19T01:07:35;99958.50;;;40.74;22.34
20889;BME280;10604;51.976;7.594;2023-09-19T01:10:03;99949.50;;;40.88;22.02
20889;BME280;10604;51.976;7.594;2023-09-19T01:17:44;99965.50;;;40.81;22.50
20889;BME280;10604;51.976;7.594;2023-09-19T01:20:14;99964.16;;;41.58;21.95
20889;BME280;10604;51.976;7.594;2023-09-19T01:30:21;99972.09;;;40.48;22.63
20889;BME280;10604;51.976;7.594;2023-09-19T01:32:50;99972.53;;;41.63;21.73
20889;BME280;10604;51.976;7.594;2023-09-19T01:35:17;99974.03;;;40.75;22.64
20889;BME280;10604;51.976;7.594;2023-09-19T01:37:43;99979.19;;;41.67;21.85
20889;BME280;10604;51.976;7.594;2023-09-19T01:40:09;99985.91;;;41.81;21.46
20889;BME280;10604;51.976;7.594;2023-09-19T01:42:53;99980.38;;;41.81;21.24
20889;BME280;10604;51.976;7.594;2023-09-19T01:47:56;99990.81;;;42.11;21.26
20889;BME280;10604;51.976;7.594;2023-09-19T01:50:38;99989.50;;;39.45;23.30
20889;BME280;10604;51.976;7.594;2023-09-19T01:55:50;99992.84;;;39.47;23.49
20889;BME280;10604;51.976;7.594;2023-09-19T01:58:18;99992.44;;;40.91;22.19
20889;BME280;10604;51.976;7.594;2023-09-19T02:00:46;99992.56;;;41.38;21.49
20889;BME280;10604;51.976;7.594;2023-09-19T02:03:13;99999.63;;;41.19;21.98
20889;BME280;10604;51.976;7.594;2023-09-19T02:05:38;100000.19;;;40.18;22.17
20889;BME280;10604;51.976;7.594;2023-09-19T02:08:04;99993.47;;;40.31;23.10
20889;BME280;10604;51.976;7.594;2023-09-19T02:10:30;100000.41;;;40.12;22.83
20889;BME280;10604;51.976;7.594;2023-09-19T02:12:55;100000.50;;;40.92;22.01
20889;BME280;10604;51.976;7.594;2023-09-19T02:15:21;100000.00;;;41.32;21.47
20889;BME280;10604;51.976;7.594;2023-09-19T02:17:47;99998.31;;;39.42;23.00
20889;BME280;10604;51.976;7.594;2023-09-19T02:20:12;100002.19;;;40.23;22.00
20889;BME280;10604;51.976;7.594;2023-09-19T02:22:39;100012.19;;;42.20;20.99
20889;BME280;10604;51.976;7.594;2023-09-19T02:25:04;100004.66;;;40.95;21.62
20889;BME280;10604;51.976;7.594;2023-09-19T02:27:30;100008.72;;;40.34;21.75
20889;BME280;10604;51.976;7.594;2023-09-19T02:29:55;100012.97;;;38.52;24.07
20889;BME280;10604;51.976;7.594;2023-09-19T02:32:21;100025.13;;;39.30;23.59
20889;BME280;10604;51.976;7.594;2023-09-19T02:34:46;100009.59;;;40.93;21.93
20889;BME280;10604;51.976;7.594;2023-09-19T02:37:11;100023.47;;;40.22;21.98
20889;BME280;10604;51.976;7.594;2023-09-19T02:39:38;100011.84;;;38.65;23.69
20889;BME280;10604;51.976;7.594;2023-09-19T02:42:04;100018.97;;;39.56;23.28
20889;BME280;10604;51.976;7.594;2023-09-19T02:44:29;100025.63;;;40.37;22.35
20889;BME280;10604;51.976;7.594;2023-09-19T02:46:55;100027.78;;;38.91;23.49
20889;BME280;10604;51.976;7.594;2023-09-19T02:49:22;100016.91;;;38.45;24.17
20889;BME280;10604;51.976;7.594;2023-09-19T02:51:47;100025.72;;;39.82;22.49
20889;BME280;10604;51.976;7.594;2023-09-19T02:54:12;100037.72;;;39.37;22.88
20889;BME280;10604;51.976;7.594;2023-09-19T02:56:38;100032.31;;;38.97;23.37
20889;BME280;10604;51.976;7.594;2023-09-19T02:59:04;100034.59;;;39.84;22.81
20889;BME280;10604;51.976;7.594;2023-09-19T03:01:29;100032.66;;;40.98;21.58
20889;BME280;10604;51.976;7.594;2023-09-19T03:03:54;100044.28;;;40.25;21.82
20889;BME280;10604;51.976;7.594;2023-09-19T03:06:20;100042.56;;;39.13;22.43
20889;BME280;10604;51.976;7.594;2023-09-19T03:08:46;100045.66;;;38.72;23.26
20889;BME280;10604;51.976;7.594;2023-09-19T03:11:13;100031.91;;;40.54;21.98
20889;BME280;10604;51.976;7.594;2023-09-19T03:13:41;100038.56;;;40.15;21.62
20889;BME280;10604;51.976;7.594;2023-09-19T03:16:07;100038.00;;;39.74;22.66
20889;BME280;10604;51.976;7.594;2023-09-19T03:18:35;100041.72;;;39.13;23.07
20889;BME280;10604;51.976;7.594;2023-09-19T03:21:00;100037.88;;;39.14;22.94
20889;BME280;10604;51.976;7.594;2023-09-19T03:23:26;100037.28;;;40.01;22.27
20889;BME280;10604;51.976;7.594;2023-09-19T03:25:52;100039.88;;;37.58;23.89
20889;BME280;10604;51.976;7.594;2023-09-19T03:28:18;100043.00;;;39.56;22.64
20889;BME280;10604;51.976;7.594;2023-09-19T03:30:43;100050.34;;;38.88;23.21
20889;BME280;10604;51.976;7.594;2023-09-19T03:33:08;100053.03;;;39.45;21.94
20889;BME280;10604;51.976;7.594;2023-09-19T03:35:37;100051.41;;;39.82;22.07
20889;BME280;10604;51.976;7.594;2023-09-19T03:38:03;100049.97;;;38.68;22.87
20889;BME280;10604;51.976;7.594;2023-09-19T03:40:28;100048.97;;;39.02;22.68
20889;BME280;10604;51.976;7.594;2023-09-19T03:42:53;100052.91;;;39.73;22.14
20889;BME280;10604;51.976;7.594;2023-09-19T03:45:19;100042.97;;;38.77;23.01
20889;BME280;10604;51.976;7.594;2023-09-19T03:47:45;100051.00;;;37.87;23.67
20889;BME280;10604;51.976;7.594;2023-09-19T03:50:12;100039.47;;;38.82;23.05
20889;BME280;10604;51.976;7.594;2023-09-19T03:52:40;100050.38;;;40.05;21.24
20889;BME280;10604;51.976;7.594;2023-09-19T03:55:05;100041.59;;;37.53;23.81
20889;BME280;10604;51.976;7.594;2023-09-19T03:57:31;100049.06;;;39.74;21.75
20889;BME280;10604;51.976;7.594;2023-09-19T03:59:56;100042.16;;;38.36;22.56
20889;BME280;10604;51.976;7.594;2023-09-19T04:02:22;100046.50;;;38.89;22.09
20889;BME280;10604;51.976;7.594;2023-09-19T04:04:51;100058.41;;;40.50;21.40
20889;BME280;10604;51.976;7.594;2023-09-19T04:07:17;100059.38;;;39.29;21.67
20889;BME280;10604;51.976;7.594;2023-09-19T04:09:42;100056.78;;;38.25;23.21
20889;BME280;10604;51.976;7.594;2023-09-19T04:12:07;100056.44;;;39.69;21.73
20889;BME280;10604;51.976;7.594;2023-09-19T04:14:36;100060.19;;;40.18;21.03
20889;BME280;10604;51.976;7.594;2023-09-19T04:17:01;100051.16;;;40.66;20.77
20889;BME280;10604;51.976;7.594;2023-09-19T04:19:26;100060.19;;;40.18;21.06
20889;BME280;10604;51.976;7.594;2023-09-19T04:21:51;100054.16;;;38.99;21.47
20889;BME280;10604;51.976;7.594;2023-09-19T04:24:17;100057.44;;;39.12;22.16
20889;BME280;10604;51.976;7.594;2023-09-19T04:26:44;100060.06;;;40.08;21.37
20889;BME280;10604;51.976;7.594;2023-09-19T04:29:10;100059.47;;;38.20;22.52
20889;BME280;10604;51.976;7.594;2023-09-19T04:31:36;100066.53;;;38.96;21.49
20889;BME280;10604;51.976;7.594;2023-09-19T04:34:05;100068.28;;;39.02;21.15
20889;BME280;10604;51.976;7.594;2023-09-19T04:36:30;100079.22;;;39.59;21.06
20889;BME280;10604;51.976;7.594;2023-09-19T04:38:56;100076.44;;;40.75;20.55
20889;BME280;10604;51.976;7.594;2023-09-19T04:41:21;100085.06;;;40.56;20.22
20889;BME280;10604;51.976;7.594;2023-09-19T04:43:47;100084.44;;;40.49;19.85
20889;BME280;10604;51.976;7.594;2023-09-19T04:46:12;100082.91;;;39.48;21.14
20889;BME280;10604;51.976;7.594;2023-09-19T04:48:39;100082.88;;;39.14;21.28
20889;BME280;10604;51.976;7.594;2023-09-19T04:51:05;100082.38;;;40.88;20.23
20889;BME280;10604;51.976;7.594;2023-09-19T04:53:30;100089.28;;;39.48;20.70
20889;BME280;10604;51.976;7.594;2023-09-19T04:55:55;100095.34;;;40.39;20.40
20889;BME280;10604;51.976;7.594;2023-09-19T04:58:21;100092.31;;;40.62;20.23
20889;BME280;10604;51.976;7.594;2023-09-19T05:00:46;100086.41;;;39.27;20.74
20889;BME280;10604;51.976;7.594;2023-09-19T05:03:11;100089.50;;;40.36;20.58
20889;BME280;10604;51.976;7.594;2023-09-19T05:05:37;100093.75;;;40.05;20.51
20889;BME280;10604;51.976;7.594;2023-09-19T05:08:03;100088.56;;;39.08;21.52
20889;BME280;10604;51.976;7.594;2023-09-19T05:10:30;100101.22;;;39.37;20.78
20889;BME280;10604;51.976;7.594;2023-09-19T05:12:56;100112.09;;;40.11;20.48
20889;BME280;10604;51.976;7.594;2023-09-19T05:15:21;100117.50;;;39.50;21.11
20889;BME280;10604;51.976;7.594;2023-09-19T05:17:50;100113.66;;;38.66;21.49
20889;BME280;10604;51.976;7.594;2023-09-19T05:20:16;100126.00;;;39.04;21.22
20889;BME280;10604;51.976;7.594;2023-09-19T05:22:42;100128.59;;;38.82;20.71
20889;BME280;10604;51.976;7.594;2023-09-19T05:25:08;100138.63;;;39.28;21.18
20889;BME280;10604;51.976;7.594;2023-09-19T05:27:34;100144.38;;;39.55;20.50
20889;BME280;10604;51.976;7.594;2023-09-19T05:29:59;100153.94;;;40.36;20.07
20889;BME280;10604;51.976;7.594;2023-09-19T05:32:24;100147.09;;;39.10;20.52
20889;BME280;10604;51.976;7.594;2023-09-19T05:34:50;100150.41;;;38.09;21.81
20889;BME280;10604;51.976;7.594;2023-09-19T05:37:18;100157.69;;;38.03;21.42
20889;BME280;10604;51.976;7.594;2023-09-19T05:39:43;100163.00;;;39.93;20.74
20889;BME280;10604;51.976;7.594;2023-09-19T05:42:09;100154.50;;;38.81;20.91
20889;BME280;10604;51.976;7.594;2023-09-19T05:44:34;100157.59;;;39.53;20.51
20889;BME280;10604;51.976;7.594;2023-09-19T05:47:00;100155.44;;;39.27;20.61
20889;BME280;10604;51.976;7.594;2023-09-19T05:49:26;100164.94;;;40.31;20.36
20889;BME280;10604;51.976;7.594;2023-09-19T05:51:52;100151.72;;;39.66;20.33
20889;BME280;10604;51.976;7.594;2023-09-19T05:54:20;100165.47;;;39.95;20.03
20889;BME280;10604;51.976;7.594;2023-09-19T05:56:45;100148.41;;;39.64;20.32
20889;BME280;10604;51.976;7.594;2023-09-19T05:59:12;100162.91;;;40.43;19.71
20889;BME280;10604;51.976;7.594;2023-09-19T06:01:40;100153.28;;;40.67;20.06
20889;BME280;10604;51.976;7.594;2023-09-19T06:04:05;100152.22;;;38.90;21.03
20889;BME280;10604;51.976;7.594;2023-09-19T06:06:31;100154.91;;;40.25;20.29
20889;BME280;10604;51.976;7.594;2023-09-19T06:08:56;100155.16;;;39.73;20.48
20889;BME280;10604;51.976;7.594;2023-09-19T06:11:22;100152.47;;;40.50;20.09
20889;BME280;10604;51.976;7.594;2023-09-19T06:13:50;100156.66;;;40.70;19.89
20889;BME280;10604;51.976;7.594;2023-09-19T06:16:18;100148.16;;;39.82;21.00
20889;BME280;10604;51.976;7.594;2023-09-19T06:18:44;100160.69;;;40.84;19.63
20889;BME280;10604;51.976;7.594;2023-09-19T06:21:10;100170.38;;;40.64;19.90
20889;BME280;10604;51.976;7.594;2023-09-19T06:23:36;100161.31;;;40.47;20.17
20889;BME280;10604;51.976;7.594;2023-09-19T06:26:01;100154.81;;;40.20;20.13
20889;BME280;10604;51.976;7.594;2023-09-19T06:28:26;100161.09;;;40.71;20.21
20889;BME280;10604;51.976;7.594;2023-09-19T06:30:53;100155.47;;;41.09;20.12
20889;BME280;10604;51.976;7.594;2023-09-19T06:33:19;100156.88;;;39.29;20.78
20889;BME280;10604;51.976;7.594;2023-09-19T06:35:46;100162.31;;;39.86;21.52
20889;BME280;10604;51.976;7.594;2023-09-19T06:38:12;100153.34;;;38.77;22.00
20889;BME280;10604;51.976;7.594;2023-09-19T06:40:38;100157.94;;;39.57;21.23
20889;BME280;10604;51.976;7.594;2023-09-19T06:43:03;100157.94;;;40.45;20.58
20889;BME280;10604;51.976;7.594;2023-09-19T06:45:30;100165.22;;;40.51;20.52
20889;BME280;10604;51.976;7.594;2023-09-19T06:47:56;100146.53;;;39.53;21.22
20889;BME280;10604;51.976;7.594;2023-09-19T06:50:22;100166.28;;;40.89;20.42
20889;BME280;10604;51.976;7.594;2023-09-19T06:52:49;100166.56;;;39.93;20.63
20889;BME280;10604;51.976;7.594;2023-09-19T06:55:15;100154.75;;;39.48;21.37
20889;BME280;10604;51.976;7.594;2023-09-19T06:57:41;100158.44;;;39.70;21.71
20889;BME280;10604;51.976;7.594;2023-09-19T07:00:08;100171.69;;;40.79;19.97
20889;BME280;10604;51.976;7.594;2023-09-19T07:02:41;100176.09;;;40.19;21.03
20889;BME280;10604;51.976;7.594;2023-09-19T07:05:06;100175.59;;;41.85;19.61
20889;BME280;10604;51.976;7.594;2023-09-19T07:07:32;100175.25;;;40.74;20.38
20889;BME280;10604;51.976;7.594;2023-09-19T07:10:00;100175.84;;;40.21;20.95
20889;BME280;10604;51.976;7.594;2023-09-19T07:12:25;100180.16;;;40.50;20.71
20889;BME280;10604;51.976;7.594;2023-09-19T07:14:50;100183.53;;;42.03;19.84
20889;BME280;10604;51.976;7.594;2023-09-19T07:17:15;100194.16;;;42.58;19.48
20889;BME280;10604;51.976;7.594;2023-09-19T07:19:44;100201.06;;;41.82;19.91
20889;BME280;10604;51.976;7.594;2023-09-19T07:22:09;100207.81;;;40.50;21.12
20889;BME280;10604;51.976;7.594;2023-09-19T07:24:34;100201.75;;;42.31;19.72
20889;BME280;10604;51.976;7.594;2023-09-19T07:27:01;100197.31;;;40.30;21.08
20889;BME280;10604;51.976;7.594;2023-09-19T07:29:27;100203.47;;;41.68;20.25
20889;BME280;10604;51.976;7.594;2023-09-19T07:31:52;100203.31;;;41.53;20.07
20889;BME280;10604;51.976;7.594;2023-09-19T07:34:17;100201.41;;;41.59;20.16
20889;BME280;10604;51.976;7.594;2023-09-19T07:36:43;100197.19;;;42.57;19.38
20889;BME280;10604;51.976;7.594;2023-09-19T07:39:09;100200.25;;;40.62;20.82
20889;BME280;10604;51.976;7.594;2023-09-19T07:41:34;100209.28;;;41.18;20.59
20889;BME280;10604;51.976;7.594;2023-09-19T07:43:59;100199.81;;;41.63;20.53
20889;BME280;10604;51.976;7.594;2023-09-19T07:46:24;100209.03;;;40.98;20.47
20889;BME280;10604;51.976;7.594;2023-09-19T07:48:50;100199.97;;;41.83;20.13
20889;BME280;10604;51.976;7.594;2023-09-19T07:51:16;100196.31;;;43.09;19.24
20889;BME280;10604;51.976;7.594;2023-09-19T07:53:42;100193.47;;;39.81;21.17
20889;BME280;10604;51.976;7.594;2023-09-19T07:56:09;100204.59;;;41.99;19.74
20889;BME280;10604;51.976;7.594;2023-09-19T07:58:34;100200.56;;;41.85;19.98
20889;BME280;10604;51.976;7.594;2023-09-19T08:01:07;100203.84;;;40.24;21.19
20889;BME280;10604;51.976;7.594;2023-09-19T08:03:33;100211.06;;;41.29;20.47
20889;BME280;10604;51.976;7.594;2023-09-19T08:05:59;100208.16;;;41.68;20.02
20889;BME280;10604;51.976;7.594;2023-09-19T08:08:25;100210.13;;;40.58;21.10
20889;BME280;10604;51.976;7.594;2023-09-19T08:10:54;100214.00;;;40.57;21.24
20889;BME280;10604;51.976;7.594;2023-09-19T08:13:21;100213.34;;;40.67;21.32
20889;BME280;10604;51.976;7.594;2023-09-19T08:15:46;100222.81;;;39.54;21.67
20889;BME280;10604;51.976;7.594;2023-09-19T08:18:13;100222.94;;;41.03;21.05
20889;BME280;10604;51.976;7.594;2023-09-19T08:20:38;100217.94;;;42.07;19.86
20889;BME280;10604;51.976;7.594;2023-09-19T08:23:03;100211.81;;;39.87;21.71
20889;BME280;10604;51.976;7.594;2023-09-19T08:25:29;100228.69;;;42.78;19.54
20889;BME280;10604;51.976;7.594;2023-09-19T08:27:54;100231.19;;;42.79;19.43
20889;BME280;10604;51.976;7.594;2023-09-19T08:30:23;100231.84;;;41.80;20.21
20889;BME280;10604;51.976;7.594;2023-09-19T08:32:49;100242.94;;;42.49;19.39
20889;BME280;10604;51.976;7.594;2023-09-19T08:35:14;100254.72;;;40.79;21.32
20889;BME280;10604;51.976;7.594;2023-09-19T08:37:40;100249.00;;;42.04;20.46
20889;BME280;10604;51.976;7.594;2023-09-19T08:40:05;100244.72;;;41.16;20.57
20889;BME280;10604;51.976;7.594;2023-09-19T08:42:46;100235.97;;;42.42;19.85
20889;BME280;10604;51.976;7.594;2023-09-19T08:45:12;100242.13;;;42.49;19.38
20889;BME280;10604;51.976;7.594;2023-09-19T08:47:40;100244.44;;;41.39;20.28
20889;BME280;10604;51.976;7.594;2023-09-19T08:50:11;100241.81;;;42.45;19.58
20889;BME280;10604;51.976;7.594;2023-09-19T08:52:42;100230.53;;;42.62;19.55
20889;BME280;10604;51.976;7.594;2023-09-19T08:55:09;100229.88;;;42.45;19.14
20889;BME280;10604;51.976;7.594;2023-09-19T08:57:36;100241.53;;;40.47;21.17
20889;BME280;10604;51.976;7.594;2023-09-19T09:00:07;100238.34;;;41.91;19.83
20889;BME280;10604;51.976;7.594;2023-09-19T09:02:37;100245.50;;;41.60;20.36
20889;BME280;10604;51.976;7.594;2023-09-19T09:05:05;100242.50;;;42.26;19.77
20889;BME280;10604;51.976;7.594;2023-09-19T09:07:31;100248.97;;;43.51;18.89
20889;BME280;10604;51.976;7.594;2023-09-19T09:09:59;100248.28;;;40.73;21.06
20889;BME280;10604;51.976;7.594;2023-09-19T09:12:25;100248.75;;;41.52;20.56
20889;BME280;10604;51.976;7.594;2023-09-19T09:14:51;100239.81;;;41.23;20.67
20889;BME280;10604;51.976;7.594;2023-09-19T09:17:17;100243.56;;;41.61;20.40
20889;BME280;10604;51.976;7.594;2023-09-19T09:19:45;100234.03;;;44.02;18.69
20889;BME280;10604;51.976;7.594;2023-09-19T09:22:11;100239.59;;;42.94;19.19
20889;BME280;10604;51.976;7.594;2023-09-19T09:24:37;100233.72;;;43.79;18.51
20889;BME280;10604;51.976;7.594;2023-09-19T09:27:04;100232.69;;;41.86;19.78
20889;BME280;10604;51.976;7.594;2023-09-19T09:29:47;100249.66;;;43.11;19.14
20889;BME280;10604;51.976;7.594;2023-09-19T09:34:47;100244.06;;;43.01;18.92
20889;BME280;10604;51.976;7.594;2023-09-19T09:37:14;100226.81;;;39.91;20.85
20889;BME280;10604;51.976;7.594;2023-09-19T09:39:53;100226.47;;;41.42;20.39
20889;BME280;10604;51.976;7.594;2023-09-19T09:42:28;100220.72;;;40.61;20.65
20889;BME280;10604;51.976;7.594;2023-09-19T09:47:46;100218.28;;;39.93;21.06
20889;BME280;10604;51.976;7.594;2023-09-19T09:50:27;100224.81;;;42.79;19.40
20889;BME280;10604;51.976;7.594;2023-09-19T09:52:55;100233.50;;;39.22;21.35
20889;BME280;10604;51.976;7.594;2023-09-19T09:55:27;100240.56;;;40.75;20.88
20889;BME280;10604;51.976;7.594;2023-09-19T09:58:05;100228.16;;;41.70;20.35
20889;BME280;10604;51.976;7.594;2023-09-19T10:00:51;100233.63;;;39.72;20.81
20889;BME280;10604;51.976;7.594;2023-09-19T10:03:20;100237.22;;;42.66;19.57
20889;BME280;10604;51.976;7.594;2023-09-19T10:05:46;100234.84;;;43.78;19.01
20889;BME280;10604;51.976;7.594;2023-09-19T10:08:20;100233.13;;;43.46;18.45
20889;BME280;10604;51.976;7.594;2023-09-19T10:10:45;100235.28;;;41.12;20.42
20889;BME280;10604;51.976;7.594;2023-09-19T10:13:19;100232.03;;;44.59;18.16
20889;BME280;10604;51.976;7.594;2023-09-19T10:15:50;100227.97;;;42.97;19.03
20889;BME280;10604;51.976;7.594;2023-09-19T10:18:24;100230.38;;;44.27;17.88
20889;BME280;10604;51.976;7.594;2023-09-19T10:20:50;100239.41;;;41.36;19.59
20889;BME280;10604;51.976;7.594;2023-09-19T10:23:16;100230.47;;;42.52;19.43
20889;BME280;10604;51.976;7.594;2023-09-19T10:25:47;100232.63;;;44.45;17.80
20889;BME280;10604;51.976;7.594;2023-09-19T10:28:14;100238.09;;;43.44;18.80
20889;BME280;10604;51.976;7.594;2023-09-19T10:30:43;100232.38;;;42.93;19.02
20889;BME280;10604;51.976;7.594;2023-09-19T10:33:10;100211.41;;;41.60;19.79
20889;BME280;10604;51.976;7.594;2023-09-19T10:35:40;100201.75;;;43.61;18.29
20889;BME280;10604;51.976;7.594;2023-09-19T10:38:06;100214.75;;;44.57;17.81
20889;BME280;10604;51.976;7.594;2023-09-19T10:40:34;100210.56;;;44.69;17.75
20889;BME280;10604;51.976;7.594;2023-09-19T10:43:04;100218.72;;;44.40;17.56
20889;BME280;10604;51.976;7.594;2023-09-19T10:45:31;100193.06;;;43.37;18.78
20889;BME280;10604;51.976;7.594;2023-09-19T10:47:56;100208.72;;;43.73;18.11
20889;BME280;10604;51.976;7.594;2023-09-19T10:50:22;100208.25;;;42.10;18.73
20889;BME280;10604;51.976;7.594;2023-09-19T10:52:48;100209.63;;;42.96;19.06
20889;BME280;10604;51.976;7.594;2023-09-19T10:55:23;100211.91;;;44.77;17.57
20889;BME280;10604;51.976;7.594;2023-09-19T10:57:50;100210.28;;;44.76;16.93
20889;BME280;10604;51.976;7.594;2023-09-19T11:00:15;100200.94;;;43.55;17.84
20889;BME280;10604;51.976;7.594;2023-09-19T11:03:15;100200.84;;;43.30;17.84
20889;BME280;10604;51.976;7.594;2023-09-19T11:05:32;100214.75;;;44.62;17.04
20889;BME280;10604;51.976;7.594;2023-09-19T11:07:57;100209.94;;;45.42;16.55
20889;BME280;10604;51.976;7.594;2023-09-19T11:13:26;100208.91;;;45.33;16.75
20889;BME280;10604;51.976;7.594;2023-09-19T11:26:50;100236.47;;;42.34;18.30
20889;BME280;10604;51.976;7.594;2023-09-19T11:31:51;100224.56;;;44.14;17.10
20889;BME280;10604;51.976;7.594;2023-09-19T11:39:40;100210.63;;;43.63;18.36
20889;BME280;10604;51.976;7.594;2023-09-19T11:44:52;100203.47;;;42.89;18.59
20889;BME280;10604;51.976;7.594;2023-09-19T11:47:21;100194.81;;;44.09;17.62
20889;BME280;10604;51.976;7.594;2023-09-19T11:49:47;100207.00;;;46.30;16.19
20889;BME280;10604;51.976;7.594;2023-09-19T11:52:21;100206.44;;;44.41;16.73
20889;BME280;10604;51.976;7.594;2023-09-19T11:54:53;100198.53;;;44.84;16.78
20889;BME280;10604;51.976;7.594;2023-09-19T11:57:21;100192.03;;;43.73;17.56
20889;BME280;10604;51.976;7.594;2023-09-19T11:59:47;100189.81;;;45.01;16.68
20889;BME280;10604;51.976;7.594;2023-09-19T12:02:13;100182.03;;;43.98;17.00
20889;BME280;10604;51.976;7.594;2023-09-19T12:04:44;100192.94;;;45.77;16.57
20889;BME280;10604;51.976;7.594;2023-09-19T12:07:14;100200.47;;;46.68;15.72
20889;BME280;10604;51.976;7.594;2023-09-19T12:09:49;100194.19;;;44.47;16.92
20889;BME280;10604;51.976;7.594;2023-09-19T12:12:25;100185.34;;;43.90;16.80
20889;BME280;10604;51.976;7.594;2023-09-19T12:14:53;100190.94;;;47.12;15.83
20889;BME280;10604;51.976;7.594;2023-09-19T12:17:20;100188.31;;;44.49;16.47
20889;BME280;10604;51.976;7.594;2023-09-19T12:19:52;100191.31;;;43.11;17.94
20889;BME280;10604;51.976;7.594;2023-09-19T12:22:18;100197.78;;;43.26;17.64
20889;BME280;10604;51.976;7.594;2023-09-19T12:24:45;100186.84;;;46.33;16.28
20889;BME280;10604;51.976;7.594;2023-09-19T12:27:11;100177.41;;;44.73;17.18
20889;BME280;10604;51.976;7.594;2023-09-19T12:29:44;100182.00;;;46.15;16.66
20889;BME280;10604;51.976;7.594;2023-09-19T12:32:09;100161.97;;;44.16;16.85
20889;BME280;10604;51.976;7.594;2023-09-19T12:34:35;100154.72;;;45.44;16.30
20889;BME280;10604;51.976;7.594;2023-09-19T12:37:04;100161.56;;;46.19;16.13
20889;BME280;10604;51.976;7.594;2023-09-19T12:39:31;100172.59;;;45.38;16.40
20889;BME280;10604;51.976;7.594;2023-09-19T12:41:56;100164.66;;;44.52;16.85
20889;BME280;10604;51.976;7.594;2023-09-19T12:44:21;100158.13;;;46.04;16.94
20889;BME280;10604;51.976;7.594;2023-09-19T12:46:49;100170.91;;;43.67;17.71
20889;BME280;10604;51.976;7.594;2023-09-19T12:49:15;100151.28;;;44.48;17.80
20889;BME280;10604;51.976;7.594;2023-09-19T12:51:42;100155.66;;;44.80;17.20
20889;BME280;10604;51.976;7.594;2023-09-19T12:54:08;100154.72;;;44.15;17.62
20889;BME280;10604;51.976;7.594;2023-09-19T12:56:42;100160.88;;;44.02;17.24
20889;BME280;10604;51.976;7.594;2023-09-19T12:59:12;100155.81;;;43.23;18.09
20889;BME280;10604;51.976;7.594;2023-09-19T13:01:38;100149.41;;;43.22;18.30
20889;BME280;10604;51.976;7.594;2023-09-19T13:04:19;100167.97;;;41.43;18.81
20889;BME280;10604;51.976;7.594;2023-09-19T13:06:45;100166.91;;;40.96;19.44
20889;BME280;10604;51.976;7.594;2023-09-19T13:09:12;100163.38;;;43.53;17.92
20889;BME280;10604;51.976;7.594;2023-09-19T13:11:38;100167.22;;;42.54;18.45
20889;BME280;10604;51.976;7.594;2023-09-19T13:14:16;100164.16;;;43.43;17.62
20889;BME280;10604;51.976;7.594;2023-09-19T13:16:55;100161.09;;;44.21;17.33
20889;BME280;10604;51.976;7.594;2023-09-19T13:19:36;100161.94;;;43.35;18.00
20889;BME280;10604;51.976;7.594;2023-09-19T13:22:02;100171.31;;;44.61;17.37
20889;BME280;10604;51.976;7.594;2023-09-19T13:24:28;100163.00;;;41.40;18.71
20889;BME280;10604;51.976;7.594;2023-09-19T13:26:55;100154.78;;;45.34;16.89
20889;BME280;10604;51.976;7.594;2023-09-19T13:29:21;100156.00;;;46.91;15.88
20889;BME280;10604;51.976;7.594;2023-09-19T13:31:50;100140.00;;;46.54;15.96
20889;BME280;10604;51.976;7.594;2023-09-19T13:34:16;100150.16;;;44.60;16.91
20889;BME280;10604;51.976;7.594;2023-09-19T13:36:42;100141.31;;;42.38;18.18
20889;BME280;10604;51.976;7.594;2023-09-19T13:39:07;100145.59;;;44.84;16.59